createdAt,value
2023-04-16T00:00:57.752Z,0.00
2023-04-16T00:01:57.841Z,0.00
2023-04-16T00:02:57.824Z,0.00
2023-04-16T00:03:57.876Z,0.00
2023-04-16T00:04:57.710Z,0.00
2023-04-16T00:05:57.659Z,0.00
2023-04-16T00:06:57.673Z,0.00
2023-04-16T00:07:57.651Z,0.00
2023-04-16T00:08:57.627Z,0.00
2023-04-16T00:09:57.606Z,0.00
2023-04-16T00:10:57.603Z,0.00
2023-04-16T00:11:57.617Z,0.00
2023-04-16T00:12:57.570Z,0.00
2023-04-16T00:13:57.554Z,0.00
2023-04-16T00:14:57.554Z,0.00
2023-04-16T00:15:57.526Z,0.00
2023-04-16T00:16:57.581Z,0.00
2023-04-16T00:17:57.524Z,0.00
2023-04-16T00:18:57.534Z,0.00
2023-04-16T00:19:57.475Z,0.00
2023-04-16T00:20:57.478Z,0.00
2023-04-16T00:21:57.465Z,0.00
2023-04-16T00:22:57.454Z,0.00
2023-04-16T00:23:57.426Z,0.00
2023-04-16T00:24:57.414Z,0.00
2023-04-16T00:25:57.403Z,0.00
2023-04-16T00:26:57.415Z,0.00
2023-04-16T00:27:57.372Z,0.00
2023-04-16T00:28:57.366Z,0.00
2023-04-16T00:29:57.360Z,0.00
2023-04-16T00:30:57.344Z,0.00
2023-04-16T00:31:57.333Z,0.00
2023-04-16T00:32:57.357Z,0.00
2023-04-16T00:33:57.291Z,0.00
2023-04-16T00:34:57.286Z,0.00
2023-04-16T00:35:57.278Z,0.00
2023-04-16T00:36:57.271Z,0.00
2023-04-16T00:37:57.234Z,0.00
2023-04-16T00:38:57.241Z,0.00
2023-04-16T00:39:57.234Z,0.00
2023-04-16T00:40:57.212Z,0.00
2023-04-16T00:41:57.227Z,0.00
2023-04-16T00:42:57.176Z,0.00
2023-04-16T00:43:57.157Z,0.00
2023-04-16T00:44:57.164Z,0.00
2023-04-16T00:45:57.227Z,0.00
2023-04-16T00:46:57.139Z,0.00
2023-04-16T00:47:58.778Z,0.00
2023-04-16T00:48:57.108Z,0.00
2023-04-16T00:49:57.070Z,0.00
2023-04-16T00:50:57.073Z,0.00
2023-04-16T00:51:57.066Z,0.00
2023-04-16T00:52:57.042Z,0.00
2023-04-16T00:53:57.056Z,0.00
2023-04-16T00:54:57.022Z,0.00
2023-04-16T00:55:57.006Z,0.00
2023-04-16T00:56:57.003Z,0.00
2023-04-16T00:57:56.982Z,0.00
2023-04-16T00:58:56.969Z,0.00
2023-04-16T00:59:56.944Z,0.00
2023-04-16T01:00:56.942Z,0.00
2023-04-16T01:01:57.003Z,0.00
2023-04-16T01:02:57.056Z,0.00
2023-04-16T01:03:57.054Z,0.00
2023-04-16T01:04:56.911Z,0.00
2023-04-16T01:05:56.882Z,0.00
2023-04-16T01:06:56.877Z,0.00
2023-04-16T01:07:56.856Z,0.00
2023-04-16T01:08:56.836Z,0.00
2023-04-16T01:09:56.844Z,0.00
2023-04-16T01:10:56.825Z,0.00
2023-04-16T01:13:06.615Z,0.00
2023-04-16T01:14:06.593Z,0.00
2023-04-16T01:15:06.575Z,0.00
2023-04-16T01:16:06.600Z,0.00
2023-04-16T01:17:06.577Z,0.00
2023-04-16T01:18:06.623Z,0.00
2023-04-16T01:19:06.515Z,0.00
2023-04-16T01:20:06.504Z,0.00
2023-04-16T01:21:06.490Z,0.00
2023-04-16T01:22:06.486Z,0.00
2023-04-16T01:23:06.473Z,0.00
2023-04-16T01:24:06.453Z,0.00
2023-04-16T01:25:06.449Z,0.00
2023-04-16T01:26:06.422Z,0.00
2023-04-16T01:27:06.441Z,0.00
2023-04-16T01:28:06.396Z,0.00
2023-04-16T01:29:06.559Z,0.00
2023-04-16T01:30:06.366Z,0.00
2023-04-16T01:31:06.393Z,0.00
2023-04-16T01:32:06.353Z,0.00
2023-04-16T01:33:06.339Z,0.00
2023-04-16T01:34:06.327Z,0.00
2023-04-16T01:35:06.310Z,0.00
2023-04-16T01:36:06.302Z,0.00
2023-04-16T01:37:06.313Z,0.00
2023-04-16T01:38:06.278Z,0.00
2023-04-16T01:39:06.292Z,0.00
2023-04-16T01:40:06.245Z,0.00
2023-04-16T01:41:06.241Z,0.00
2023-04-16T01:42:06.245Z,0.00
2023-04-16T01:43:06.198Z,0.00
2023-04-16T01:44:06.191Z,0.00
2023-04-16T01:45:06.175Z,0.00
2023-04-16T01:46:06.155Z,0.00
2023-04-16T01:47:06.167Z,0.00
2023-04-16T01:48:06.142Z,0.00
2023-04-16T01:49:06.123Z,0.00
2023-04-16T01:50:06.114Z,0.00
2023-04-16T01:51:06.118Z,0.00
2023-04-16T01:52:06.092Z,0.00
2023-04-16T01:53:06.080Z,0.00
2023-04-16T01:54:06.056Z,0.00
2023-04-16T01:55:06.045Z,0.00
2023-04-16T01:56:06.040Z,0.00
2023-04-16T01:57:06.035Z,0.00
2023-04-16T01:58:05.992Z,0.00
2023-04-16T01:59:05.980Z,0.00
2023-04-16T02:00:05.977Z,0.00
2023-04-16T02:01:06.056Z,0.00
2023-04-16T02:02:06.028Z,0.00
2023-04-16T02:03:06.071Z,0.00
2023-04-16T02:04:06.047Z,0.00
2023-04-16T02:05:05.934Z,0.00
2023-04-16T02:06:05.891Z,0.00
2023-04-16T02:07:05.899Z,0.00
2023-04-16T02:08:05.867Z,0.00
2023-04-16T02:09:05.854Z,0.00
2023-04-16T02:10:05.840Z,0.00
2023-04-16T02:11:05.834Z,0.00
2023-04-16T02:12:05.838Z,0.00
2023-04-16T02:13:05.798Z,0.00
2023-04-16T02:14:05.783Z,0.00
2023-04-16T02:15:05.774Z,0.00
2023-04-16T02:16:05.771Z,0.00
2023-04-16T02:17:05.759Z,0.00
2023-04-16T02:18:05.818Z,0.00
2023-04-16T02:19:05.726Z,0.00
2023-04-16T02:20:05.702Z,0.00
2023-04-16T02:21:05.704Z,0.00
2023-04-16T02:22:05.709Z,0.00
2023-04-16T02:23:05.667Z,0.00
2023-04-16T02:24:05.647Z,0.00
2023-04-16T02:25:05.639Z,0.00
2023-04-16T02:26:05.614Z,0.00
2023-04-16T02:27:05.644Z,0.00
2023-04-16T02:28:05.601Z,0.00
2023-04-16T02:29:05.577Z,0.00
2023-04-16T02:30:05.576Z,0.00
2023-04-16T02:31:05.559Z,0.00
2023-04-16T02:32:05.620Z,0.00
2023-04-16T02:33:05.672Z,0.00
2023-04-16T02:34:05.522Z,0.00
2023-04-16T02:35:05.512Z,0.00
2023-04-16T02:36:05.498Z,0.00
2023-04-16T02:37:05.513Z,0.00
2023-04-16T02:38:05.459Z,0.00
2023-04-16T02:39:05.450Z,0.00
2023-04-16T02:40:05.440Z,0.00
2023-04-16T02:41:05.419Z,0.00
2023-04-16T02:42:05.437Z,0.00
2023-04-16T02:43:05.400Z,0.00
2023-04-16T02:44:05.389Z,0.00
2023-04-16T02:45:05.382Z,0.00
2023-04-16T02:46:05.394Z,0.00
2023-04-16T02:47:05.365Z,0.00
2023-04-16T02:48:05.339Z,0.00
2023-04-16T02:49:05.322Z,0.00
2023-04-16T02:50:05.302Z,0.00
2023-04-16T02:51:05.312Z,0.00
2023-04-16T02:52:05.290Z,0.00
2023-04-16T02:53:05.278Z,0.00
2023-04-16T02:54:05.255Z,0.00
2023-04-16T02:55:05.242Z,0.00
2023-04-16T02:56:05.254Z,0.00
2023-04-16T02:57:05.234Z,0.00
2023-04-16T02:58:05.200Z,0.00
2023-04-16T02:59:05.200Z,0.00
2023-04-16T03:00:05.176Z,0.00
2023-04-16T03:01:05.203Z,0.00
2023-04-16T03:02:05.221Z,0.00
2023-04-16T03:03:05.174Z,0.00
2023-04-16T03:04:05.150Z,0.00
2023-04-16T03:05:05.132Z,0.00
2023-04-16T03:06:05.092Z,0.00
2023-04-16T03:07:05.102Z,0.00
2023-04-16T03:08:05.060Z,0.00
2023-04-16T03:09:05.063Z,0.00
2023-04-16T03:10:05.028Z,0.00
2023-04-16T03:11:05.034Z,0.00
2023-04-16T03:12:05.032Z,0.00
2023-04-16T03:13:05.006Z,0.00
2023-04-16T03:14:04.989Z,0.00
2023-04-16T03:15:04.986Z,0.00
2023-04-16T03:16:04.968Z,0.00
2023-04-16T03:17:04.959Z,0.00
2023-04-16T03:18:04.946Z,0.00
2023-04-16T03:19:04.927Z,0.00
2023-04-16T03:20:05.004Z,0.00
2023-04-16T03:21:04.895Z,0.00
2023-04-16T03:22:04.929Z,0.00
2023-04-16T03:23:04.861Z,0.00
2023-04-16T03:24:04.864Z,0.00
2023-04-16T03:25:04.854Z,0.00
2023-04-16T03:26:04.824Z,0.00
2023-04-16T03:27:04.855Z,0.00
2023-04-16T03:28:04.809Z,0.00
2023-04-16T03:29:04.798Z,0.00
2023-04-16T03:30:04.778Z,0.00
2023-04-16T03:31:04.856Z,0.00
2023-04-16T03:32:04.777Z,0.00
2023-04-16T03:33:04.746Z,0.00
2023-04-16T03:34:04.725Z,0.00
2023-04-16T03:35:04.722Z,0.00
2023-04-16T03:36:04.704Z,0.00
2023-04-16T03:37:04.700Z,0.00
2023-04-16T03:38:04.663Z,0.00
2023-04-16T03:39:04.656Z,0.00
2023-04-16T03:40:04.692Z,0.00
2023-04-16T03:41:04.636Z,0.00
2023-04-16T03:42:04.649Z,0.00
2023-04-16T03:43:04.622Z,0.00
2023-04-16T03:44:04.599Z,0.00
2023-04-16T03:45:04.612Z,0.00
2023-04-16T03:46:04.609Z,0.00
2023-04-16T03:47:04.567Z,0.00
2023-04-16T03:48:04.535Z,0.00
2023-04-16T03:49:04.528Z,0.00
2023-04-16T03:50:04.523Z,0.00
2023-04-16T03:51:04.495Z,0.00
2023-04-16T03:52:04.506Z,0.00
2023-04-16T03:53:04.478Z,0.00
2023-04-16T03:54:04.464Z,0.00
2023-04-16T03:55:04.462Z,0.00
2023-04-16T03:56:04.450Z,0.00
2023-04-16T03:57:04.447Z,0.00
2023-04-16T03:58:04.399Z,0.00
2023-04-16T03:59:04.419Z,0.00
2023-04-16T04:00:04.422Z,0.00
2023-04-16T04:01:04.368Z,0.00
2023-04-16T04:02:04.463Z,0.00
2023-04-16T04:03:04.577Z,0.00
2023-04-16T04:04:04.496Z,0.00
2023-04-16T04:05:04.436Z,0.00
2023-04-16T04:06:04.296Z,0.00
2023-04-16T04:07:04.310Z,0.00
2023-04-16T04:08:04.280Z,0.00
2023-04-16T04:09:04.272Z,0.00
2023-04-16T04:10:04.322Z,0.00
2023-04-16T04:11:04.253Z,0.00
2023-04-16T04:12:04.234Z,0.00
2023-04-16T04:13:04.219Z,0.00
2023-04-16T04:14:04.205Z,0.00
2023-04-16T04:15:04.330Z,0.00
2023-04-16T04:16:04.213Z,0.00
2023-04-16T04:17:04.172Z,0.00
2023-04-16T04:18:04.157Z,0.00
2023-04-16T04:19:04.129Z,0.00
2023-04-16T04:20:04.112Z,0.00
2023-04-16T04:21:04.104Z,0.00
2023-04-16T04:22:04.100Z,0.00
2023-04-16T04:23:04.083Z,4.00
2023-04-16T04:24:04.063Z,4.00
2023-04-16T04:25:04.079Z,0.00
2023-04-16T04:26:04.100Z,0.00
2023-04-16T04:27:04.027Z,4.00
2023-04-16T04:28:04.013Z,4.00
2023-04-16T04:29:04.024Z,4.00
2023-04-16T04:30:03.982Z,0.00
2023-04-16T04:31:03.985Z,4.00
2023-04-16T04:32:04.074Z,4.00
2023-04-16T04:33:04.027Z,4.00
2023-04-16T04:34:03.925Z,8.00
2023-04-16T04:35:03.926Z,4.00
2023-04-16T04:36:03.929Z,8.00
2023-04-16T04:37:03.907Z,4.00
2023-04-16T04:38:03.890Z,8.00
2023-04-16T04:39:03.878Z,8.00
2023-04-16T04:40:03.872Z,8.00
2023-04-16T04:41:03.876Z,8.00
2023-04-16T04:42:03.857Z,12.00
2023-04-16T04:43:03.804Z,8.00
2023-04-16T04:44:03.797Z,16.00
2023-04-16T04:45:03.826Z,16.00
2023-04-16T04:46:03.926Z,12.00
2023-04-16T04:47:03.787Z,16.00
2023-04-16T04:48:03.797Z,16.00
2023-04-16T04:49:03.767Z,16.00
2023-04-16T04:50:03.762Z,16.00
2023-04-16T04:51:05.023Z,16.00
2023-04-16T04:52:03.738Z,20.00
2023-04-16T04:53:03.682Z,24.00
2023-04-16T04:54:03.753Z,20.00
2023-04-16T04:55:03.665Z,24.00
2023-04-16T04:56:12.478Z,28.00
2023-04-16T04:57:04.638Z,28.00
2023-04-16T04:58:03.625Z,28.00
2023-04-16T04:59:03.603Z,28.00
2023-04-16T05:00:03.587Z,32.00
2023-04-16T05:01:03.677Z,36.00
2023-04-16T05:02:03.662Z,36.00
2023-04-16T05:03:03.637Z,36.00
2023-04-16T05:04:03.564Z,40.00
2023-04-16T05:05:03.544Z,44.00
2023-04-16T05:06:03.537Z,44.00
2023-04-16T05:07:03.503Z,44.00
2023-04-16T05:08:03.480Z,48.00
2023-04-16T05:09:03.469Z,52.00
2023-04-16T05:10:03.465Z,56.00
2023-04-16T05:11:03.451Z,64.00
2023-04-16T05:12:03.430Z,72.00
2023-04-16T05:13:03.418Z,64.00
2023-04-16T05:14:03.396Z,64.00
2023-04-16T05:15:03.384Z,64.00
2023-04-16T05:16:03.420Z,68.00
2023-04-16T05:17:03.532Z,64.00
2023-04-16T05:18:03.412Z,68.00
2023-04-16T05:19:03.340Z,72.00
2023-04-16T05:20:03.332Z,76.00
2023-04-16T05:21:03.308Z,84.00
2023-04-16T05:22:03.315Z,84.00
2023-04-16T05:23:03.295Z,80.00
2023-04-16T05:24:03.281Z,80.00
2023-04-16T05:25:03.272Z,80.00
2023-04-16T05:26:03.271Z,88.00
2023-04-16T05:27:03.236Z,88.00
2023-04-16T05:28:03.237Z,84.00
2023-04-16T05:29:03.231Z,84.00
2023-04-16T05:30:03.196Z,84.00
2023-04-16T05:31:03.211Z,88.00
2023-04-16T05:32:03.186Z,92.00
2023-04-16T05:33:03.152Z,88.00
2023-04-16T05:34:03.147Z,100.00
2023-04-16T05:35:03.192Z,104.00
2023-04-16T05:36:03.119Z,112.00
2023-04-16T05:37:03.108Z,108.00
2023-04-16T05:38:03.083Z,108.00
2023-04-16T05:39:03.062Z,108.00
2023-04-16T05:40:03.067Z,120.00
2023-04-16T05:41:03.065Z,116.00
2023-04-16T05:42:03.062Z,120.00
2023-04-16T05:43:03.014Z,124.00
2023-04-16T05:44:03.037Z,124.00
2023-04-16T05:45:02.979Z,132.00
2023-04-16T05:46:03.046Z,128.00
2023-04-16T05:47:02.963Z,132.00
2023-04-16T05:48:02.949Z,140.00
2023-04-16T05:49:02.938Z,124.00
2023-04-16T05:50:02.926Z,128.00
2023-04-16T05:51:02.924Z,132.00
2023-04-16T05:52:02.892Z,128.00
2023-04-16T05:53:02.883Z,124.00
2023-04-16T05:54:02.868Z,132.00
2023-04-16T05:55:02.846Z,136.00
2023-04-16T05:56:02.858Z,144.00
2023-04-16T05:57:02.823Z,132.00
2023-04-16T05:58:02.818Z,128.00
2023-04-16T05:59:02.805Z,120.00
2023-04-16T06:00:02.805Z,124.00
2023-04-16T06:01:02.789Z,116.00
2023-04-16T06:02:02.814Z,116.00
2023-04-16T06:03:02.977Z,132.00
2023-04-16T06:04:02.854Z,124.00
2023-04-16T06:05:02.779Z,132.00
2023-04-16T06:06:02.901Z,128.00
2023-04-16T06:07:02.693Z,136.00
2023-04-16T06:08:02.684Z,144.00
2023-04-16T06:09:02.677Z,148.00
2023-04-16T06:10:02.666Z,164.00
2023-04-16T06:11:02.674Z,144.00
2023-04-16T06:12:02.642Z,128.00
2023-04-16T06:13:02.609Z,124.00
2023-04-16T06:14:02.601Z,132.00
2023-04-16T06:15:02.592Z,140.00
2023-04-16T06:16:02.644Z,140.00
2023-04-16T06:17:02.562Z,144.00
2023-04-16T06:18:02.576Z,140.00
2023-04-16T06:19:02.538Z,156.00
2023-04-16T06:20:02.522Z,144.00
2023-04-16T06:21:02.545Z,124.00
2023-04-16T06:22:02.512Z,124.00
2023-04-16T06:23:02.501Z,116.00
2023-04-16T06:24:02.473Z,124.00
2023-04-16T06:25:02.449Z,140.00
2023-04-16T06:26:02.475Z,140.00
2023-04-16T06:27:02.449Z,144.00
2023-04-16T06:28:02.440Z,172.00
2023-04-16T06:29:02.428Z,144.00
2023-04-16T06:30:02.402Z,132.00
2023-04-16T06:31:02.443Z,132.00
2023-04-16T06:32:02.376Z,184.00
2023-04-16T06:33:02.370Z,172.00
2023-04-16T06:34:02.336Z,224.00
2023-04-16T06:35:02.347Z,172.00
2023-04-16T06:36:02.358Z,228.00
2023-04-16T06:37:02.292Z,196.00
2023-04-16T06:38:02.286Z,208.00
2023-04-16T06:39:02.303Z,188.00
2023-04-16T06:40:02.276Z,180.00
2023-04-16T06:41:02.256Z,212.00
2023-04-16T06:42:02.240Z,248.00
2023-04-16T06:43:02.222Z,196.00
2023-04-16T06:44:02.253Z,204.00
2023-04-16T06:45:02.222Z,252.00
2023-04-16T06:46:02.201Z,268.00
2023-04-16T06:47:02.244Z,280.00
2023-04-16T06:48:02.206Z,284.00
2023-04-16T06:49:02.151Z,276.00
2023-04-16T06:50:02.124Z,232.00
2023-04-16T06:51:02.172Z,244.00
2023-04-16T06:52:04.531Z,196.00
2023-04-16T06:53:02.070Z,240.00
2023-04-16T06:54:02.077Z,200.00
2023-04-16T06:55:02.123Z,224.00
2023-04-16T06:56:02.067Z,232.00
2023-04-16T06:57:02.094Z,228.00
2023-04-16T06:58:02.031Z,244.00
2023-04-16T06:59:02.013Z,228.00
2023-04-16T07:00:02.071Z,216.00
2023-04-16T07:01:02.082Z,204.00
2023-04-16T07:02:02.126Z,192.00
2023-04-16T07:03:02.366Z,188.00
2023-04-16T07:04:02.313Z,216.00
2023-04-16T07:05:01.922Z,204.00
2023-04-16T07:06:01.934Z,204.00
2023-04-16T07:07:01.898Z,224.00
2023-04-16T07:08:01.962Z,252.00
2023-04-16T07:09:01.867Z,240.00
2023-04-16T07:10:01.864Z,280.00
2023-04-16T07:11:01.867Z,276.00
2023-04-16T07:12:08.853Z,268.00
2023-04-16T07:13:01.812Z,224.00
2023-04-16T07:14:01.819Z,208.00
2023-04-16T07:15:01.792Z,204.00
2023-04-16T07:16:01.836Z,212.00
2023-04-16T07:17:01.803Z,220.00
2023-04-16T07:18:01.813Z,304.00
2023-04-16T07:19:01.773Z,284.00
2023-04-16T07:20:01.745Z,304.00
2023-04-16T07:21:01.725Z,388.00
2023-04-16T07:22:01.720Z,376.00
2023-04-16T07:23:01.684Z,380.00
2023-04-16T07:24:01.718Z,404.00
2023-04-16T07:25:01.672Z,404.00
2023-04-16T07:26:01.686Z,396.00
2023-04-16T07:27:01.647Z,472.00
2023-04-16T07:28:01.634Z,488.00
2023-04-16T07:29:01.611Z,468.00
2023-04-16T07:30:01.727Z,464.00
2023-04-16T07:31:01.596Z,448.00
2023-04-16T07:32:01.619Z,448.00
2023-04-16T07:33:01.610Z,476.00
2023-04-16T07:34:01.548Z,492.00
2023-04-16T07:35:01.530Z,504.00
2023-04-16T07:36:01.573Z,496.00
2023-04-16T07:37:01.511Z,476.00
2023-04-16T07:38:01.490Z,468.00
2023-04-16T07:39:01.501Z,636.00
2023-04-16T07:40:01.479Z,644.00
2023-04-16T07:41:01.453Z,604.00
2023-04-16T07:42:01.443Z,552.00
2023-04-16T07:43:01.422Z,556.00
2023-04-16T07:44:01.446Z,620.00
2023-04-16T07:45:01.414Z,616.00
2023-04-16T07:46:01.495Z,584.00
2023-04-16T07:47:02.864Z,568.00
2023-04-16T07:48:01.517Z,560.00
2023-04-16T07:49:01.411Z,608.00
2023-04-16T07:50:01.345Z,828.00
2023-04-16T07:51:01.329Z,1040.00
2023-04-16T07:52:01.374Z,1120.00
2023-04-16T07:53:01.304Z,1032.00
2023-04-16T07:54:01.288Z,920.00
2023-04-16T07:55:01.268Z,852.00
2023-04-16T07:56:01.273Z,792.00
2023-04-16T07:57:01.248Z,820.00
2023-04-16T07:58:01.272Z,876.00
2023-04-16T07:59:14.433Z,908.00
2023-04-16T08:00:02.271Z,904.00
2023-04-16T08:01:01.196Z,900.00
2023-04-16T08:02:01.201Z,912.00
2023-04-16T08:03:01.336Z,980.00
2023-04-16T08:04:01.289Z,1072.00
2023-04-16T08:05:01.162Z,1268.00
2023-04-16T08:06:01.127Z,1504.00
2023-04-16T08:07:01.109Z,1148.00
2023-04-16T08:08:01.112Z,984.00
2023-04-16T08:09:01.085Z,1000.00
2023-04-16T08:10:01.097Z,1056.00
2023-04-16T08:11:01.059Z,1100.00
2023-04-16T08:12:01.070Z,976.00
2023-04-16T08:13:01.040Z,944.00
2023-04-16T08:14:01.016Z,1108.00
2023-04-16T08:15:01.029Z,1256.00
2023-04-16T08:16:01.012Z,1360.00
2023-04-16T08:17:01.001Z,1572.00
2023-04-16T08:18:00.976Z,1556.00
2023-04-16T08:19:00.984Z,1548.00
2023-04-16T08:20:01.003Z,1696.00
2023-04-16T08:21:00.921Z,2420.00
2023-04-16T08:22:00.913Z,3232.00
2023-04-16T08:23:00.885Z,3980.00
2023-04-16T08:24:00.922Z,4088.00
2023-04-16T08:25:00.885Z,3908.00
2023-04-16T08:26:00.880Z,3804.00
2023-04-16T08:27:11.440Z,3580.00
2023-04-16T08:28:01.878Z,3132.00
2023-04-16T08:29:00.803Z,2876.00
2023-04-16T08:30:00.845Z,2756.00
2023-04-16T08:31:00.811Z,2648.00
2023-04-16T08:32:00.789Z,2656.00
2023-04-16T08:33:00.812Z,2672.00
2023-04-16T08:34:00.759Z,2784.00
2023-04-16T08:35:00.763Z,2912.00
2023-04-16T08:36:00.739Z,3100.00
2023-04-16T08:37:00.724Z,3172.00
2023-04-16T08:38:02.273Z,3256.00
2023-04-16T08:39:00.704Z,3428.00
2023-04-16T08:40:00.703Z,3632.00
2023-04-16T08:41:00.666Z,4084.00
2023-04-16T08:42:00.651Z,4096.00
2023-04-16T08:43:00.614Z,3960.00
2023-04-16T08:44:00.624Z,4476.00
2023-04-16T08:45:00.594Z,5064.00
2023-04-16T08:46:00.622Z,5576.00
2023-04-16T08:47:00.735Z,5648.00
2023-04-16T08:48:00.638Z,5872.00
2023-04-16T08:49:00.545Z,5584.00
2023-04-16T08:50:00.570Z,5224.00
2023-04-16T08:51:00.533Z,5072.00
2023-04-16T08:52:00.507Z,5092.00
2023-04-16T08:53:00.497Z,5052.00
2023-04-16T08:54:00.488Z,5004.00
2023-04-16T08:55:00.543Z,5312.00
2023-04-16T08:56:00.450Z,5544.00
2023-04-16T08:57:00.447Z,4808.00
2023-04-16T08:58:00.417Z,3864.00
2023-04-16T08:59:00.410Z,3448.00
2023-04-16T09:00:00.428Z,3528.00
2023-04-16T09:01:00.426Z,3564.00
2023-04-16T09:02:00.484Z,3912.00
2023-04-16T09:03:00.474Z,4040.00
2023-04-16T09:04:00.658Z,3884.00
2023-04-16T09:05:00.367Z,4172.00
2023-04-16T09:06:00.324Z,4560.00
2023-04-16T09:07:00.311Z,5060.00
2023-04-16T09:08:00.290Z,5204.00
2023-04-16T09:09:00.278Z,5112.00
2023-04-16T09:10:00.266Z,5484.00
2023-04-16T09:11:00.258Z,5592.00
2023-04-16T09:12:00.247Z,5752.00
2023-04-16T09:13:00.224Z,5652.00
2023-04-16T09:14:00.216Z,5612.00
2023-04-16T09:15:00.234Z,5524.00
2023-04-16T09:16:00.342Z,5640.00
2023-04-16T09:17:00.181Z,5436.00
2023-04-16T09:18:00.194Z,5096.00
2023-04-16T09:19:00.138Z,5012.00
2023-04-16T09:20:00.194Z,4792.00
2023-04-16T09:21:00.135Z,4712.00
2023-04-16T09:22:00.148Z,5052.00
2023-04-16T09:23:00.123Z,5436.00
2023-04-16T09:24:00.150Z,6180.00
2023-04-16T09:25:00.092Z,6780.00
2023-04-16T09:26:00.085Z,7336.00
2023-04-16T09:27:00.043Z,6968.00
2023-04-16T09:28:00.035Z,5920.00
2023-04-16T09:29:00.015Z,4984.00
2023-04-16T09:30:00.015Z,4720.00
2023-04-16T09:30:59.979Z,3880.00
2023-04-16T09:32:00.020Z,3920.00
2023-04-16T09:33:00.022Z,3804.00
2023-04-16T09:33:59.941Z,3600.00
2023-04-16T09:34:59.942Z,3888.00
2023-04-16T09:35:59.908Z,3708.00
2023-04-16T09:36:59.903Z,3204.00
2023-04-16T09:37:59.882Z,3128.00
2023-04-16T09:38:59.893Z,3272.00
2023-04-16T09:39:59.885Z,3512.00
2023-04-16T09:40:59.854Z,3492.00
2023-04-16T09:41:59.851Z,3804.00
2023-04-16T09:42:59.827Z,3796.00
2023-04-16T09:43:59.814Z,3788.00
2023-04-16T09:45:01.384Z,3852.00
2023-04-16T09:45:59.806Z,3928.00
2023-04-16T09:46:59.764Z,4176.00
2023-04-16T09:47:59.803Z,4892.00
2023-04-16T09:48:59.749Z,5252.00
2023-04-16T09:49:59.746Z,5428.00
2023-04-16T09:50:59.720Z,4748.00
2023-04-16T09:51:59.709Z,4004.00
2023-04-16T09:52:59.712Z,4272.00
2023-04-16T09:53:59.667Z,4544.00
2023-04-16T09:54:59.687Z,3664.00
2023-04-16T09:55:59.650Z,3060.00
2023-04-16T09:56:59.650Z,3236.00
2023-04-16T09:57:59.635Z,3444.00
2023-04-16T09:58:59.610Z,3604.00
2023-04-16T09:59:59.628Z,3232.00
2023-04-16T10:00:59.670Z,3244.00
2023-04-16T10:02:15.771Z,3220.00
2023-04-16T10:03:00.644Z,3456.00
2023-04-16T10:03:59.693Z,3656.00
2023-04-16T10:04:59.554Z,3708.00
2023-04-16T10:05:59.524Z,3592.00
2023-04-16T10:06:59.521Z,3276.00
2023-04-16T10:07:59.503Z,2912.00
2023-04-16T10:08:59.487Z,2768.00
2023-04-16T10:09:59.488Z,3088.00
2023-04-16T10:10:59.454Z,2868.00
2023-04-16T10:11:59.450Z,2712.00
2023-04-16T10:12:59.438Z,2632.00
2023-04-16T10:13:59.410Z,2472.00
2023-04-16T10:14:59.429Z,2656.00
2023-04-16T10:15:59.402Z,2680.00
2023-04-16T10:16:59.600Z,3320.00
2023-04-16T10:17:59.403Z,3640.00
2023-04-16T10:18:59.347Z,3804.00
2023-04-16T10:19:59.379Z,4132.00
2023-04-16T10:20:59.342Z,4760.00
2023-04-16T10:21:59.321Z,4764.00
2023-04-16T10:22:59.295Z,4872.00
2023-04-16T10:23:59.276Z,4644.00
2023-04-16T10:24:59.284Z,4652.00
2023-04-16T10:25:59.255Z,4680.00
2023-04-16T10:26:59.273Z,4576.00
2023-04-16T10:27:59.246Z,5148.00
2023-04-16T10:28:59.228Z,5008.00
2023-04-16T10:29:59.222Z,5672.00
2023-04-16T10:30:59.231Z,6380.00
2023-04-16T10:31:59.181Z,7228.00
2023-04-16T10:33:00.653Z,6432.00
2023-04-16T10:33:59.148Z,6332.00
2023-04-16T10:34:59.155Z,6388.00
2023-04-16T10:36:06.968Z,5984.00
2023-04-16T10:37:00.165Z,5416.00
2023-04-16T10:37:59.080Z,6452.00
2023-04-16T10:38:59.135Z,7952.00
2023-04-16T10:39:59.109Z,9348.00
2023-04-16T10:40:59.068Z,8260.00
2023-04-16T10:41:59.048Z,8248.00
2023-04-16T10:42:59.041Z,7076.00
2023-04-16T10:43:59.018Z,4956.00
2023-04-16T10:44:59.023Z,3564.00
2023-04-16T10:45:58.998Z,3620.00
2023-04-16T10:46:58.980Z,4456.00
2023-04-16T10:47:59.041Z,6008.00
2023-04-16T10:48:58.949Z,6728.00
2023-04-16T10:49:58.956Z,7600.00
2023-04-16T10:50:58.920Z,7932.00
2023-04-16T10:51:58.905Z,8560.00
2023-04-16T10:52:58.893Z,9340.00
2023-04-16T10:53:58.881Z,10000.00
2023-04-16T10:54:58.904Z,8552.00
2023-04-16T10:55:58.854Z,7788.00
2023-04-16T10:56:58.858Z,6600.00
2023-04-16T10:57:58.825Z,5364.00
2023-04-16T10:58:58.827Z,4608.00
2023-04-16T10:59:58.810Z,5100.00
2023-04-16T11:00:58.783Z,5548.00
2023-04-16T11:01:58.848Z,5172.00
2023-04-16T11:02:58.847Z,6292.00
2023-04-16T11:03:58.983Z,9668.00
2023-04-16T11:04:58.950Z,8912.00
2023-04-16T11:05:58.710Z,9464.00
2023-04-16T11:06:58.710Z,6480.00
2023-04-16T11:07:58.686Z,3796.00
2023-04-16T11:08:58.678Z,2632.00
2023-04-16T11:09:58.674Z,2184.00
2023-04-16T11:10:58.664Z,2148.00
2023-04-16T11:11:58.654Z,3036.00
2023-04-16T11:12:58.626Z,5340.00
2023-04-16T11:13:58.605Z,11844.00
2023-04-16T11:14:58.633Z,39040.00
2023-04-16T11:15:58.615Z,16320.00
2023-04-16T11:16:58.568Z,42432.00
2023-04-16T11:17:58.618Z,29056.00
2023-04-16T11:18:58.537Z,25216.00
2023-04-16T11:19:58.560Z,35904.00
2023-04-16T11:20:58.522Z,14436.00
2023-04-16T11:21:58.507Z,52448.00
2023-04-16T11:22:58.508Z,11752.00
2023-04-16T11:23:58.462Z,17440.00
2023-04-16T11:24:58.484Z,38752.00
2023-04-16T11:25:58.458Z,31744.00
2023-04-16T11:26:58.432Z,40320.00
2023-04-16T11:27:58.426Z,16704.00
2023-04-16T11:28:58.407Z,36384.00
2023-04-16T11:29:58.414Z,21600.00
2023-04-16T11:30:58.410Z,10356.00
2023-04-16T11:31:58.384Z,6740.00
2023-04-16T11:32:58.442Z,8608.00
2023-04-16T11:33:58.350Z,11496.00
2023-04-16T11:34:58.362Z,9616.00
2023-04-16T11:35:58.332Z,8800.00
2023-04-16T11:36:58.300Z,39552.00
2023-04-16T11:37:58.278Z,6616.00
2023-04-16T11:38:58.289Z,47488.00
2023-04-16T11:39:58.265Z,18304.00
2023-04-16T11:40:58.243Z,63136.00
2023-04-16T11:41:58.260Z,33216.00
2023-04-16T11:42:59.790Z,16144.00
2023-04-16T11:43:58.220Z,10636.00
2023-04-16T11:44:58.218Z,8116.00
2023-04-16T11:45:58.188Z,7032.00
2023-04-16T11:46:58.201Z,5432.00
2023-04-16T11:47:58.239Z,4160.00
2023-04-16T11:48:58.155Z,3696.00
2023-04-16T11:49:58.131Z,2876.00
2023-04-16T11:50:58.121Z,2256.00
2023-04-16T11:51:58.120Z,2248.00
2023-04-16T11:52:58.108Z,2544.00
2023-04-16T11:53:58.107Z,2696.00
2023-04-16T11:54:58.117Z,3276.00
2023-04-16T11:55:58.054Z,3972.00
2023-04-16T11:56:58.050Z,5112.00
2023-04-16T11:57:58.055Z,6712.00
2023-04-16T11:58:58.029Z,7524.00
2023-04-16T12:00:02.474Z,7572.00
2023-04-16T12:00:59.033Z,8696.00
2023-04-16T12:01:58.101Z,9780.00
2023-04-16T12:02:58.052Z,8024.00
2023-04-16T12:03:58.177Z,9212.00
2023-04-16T12:04:57.961Z,8560.00
2023-04-16T12:05:57.918Z,9208.00
2023-04-16T12:06:57.913Z,6516.00
2023-04-16T12:07:57.895Z,5328.00
2023-04-16T12:08:57.904Z,6376.00
2023-04-16T12:09:57.861Z,13744.00
2023-04-16T12:10:57.853Z,9852.00
2023-04-16T12:11:57.852Z,11128.00
2023-04-16T12:12:57.833Z,24672.00
2023-04-16T12:13:57.810Z,12984.00
2023-04-16T12:14:57.840Z,10816.00
2023-04-16T12:15:57.773Z,31040.00
2023-04-16T12:16:57.888Z,14472.00
2023-04-16T12:17:57.907Z,9312.00
2023-04-16T12:18:57.755Z,12792.00
2023-04-16T12:19:57.750Z,13444.00
2023-04-16T12:20:57.718Z,49248.00
2023-04-16T12:21:57.715Z,23648.00
2023-04-16T12:22:57.700Z,21216.00
2023-04-16T12:23:57.674Z,11520.00
2023-04-16T12:24:57.682Z,8176.00
2023-04-16T12:25:57.653Z,7132.00
2023-04-16T12:26:57.711Z,6236.00
2023-04-16T12:27:57.625Z,5372.00
2023-04-16T12:28:57.616Z,5820.00
2023-04-16T12:29:57.615Z,6332.00
2023-04-16T12:30:57.657Z,7412.00
2023-04-16T12:31:57.588Z,7000.00
2023-04-16T12:32:59.081Z,6728.00
2023-04-16T12:33:57.555Z,11240.00
2023-04-16T12:34:57.550Z,25568.00
2023-04-16T12:35:57.516Z,7512.00
2023-04-16T12:36:57.513Z,5352.00
2023-04-16T12:37:57.490Z,3888.00
2023-04-16T12:38:57.484Z,3228.00